sensor_id;sensor_type;location;lat;lon;timestamp;pressure;altitude;pressure_sealevel;temperature;humidity
45078;BME280;60508;42.622;25.416;2023-04-02T00:07:57;95721.38;;;8.80;67.95
45078;BME280;60508;42.622;25.416;2023-04-02T00:15:49;95713.91;;;8.45;70.73
45078;BME280;60508;42.622;25.416;2023-04-02T00:18:20;95715.75;;;8.44;70.91
45078;BME280;60508;42.622;25.416;2023-04-02T00:20:51;95726.84;;;8.31;71.08
45078;BME280;60508;42.622;25.416;2023-04-02T00:23:18;95718.66;;;8.10;71.58
45078;BME280;60508;42.622;25.416;2023-04-02T00:25:44;95711.44;;;8.11;71.69
45078;BME280;60508;42.622;25.416;2023-04-02T00:28:14;95706.91;;;8.11;71.62
45078;BME280;60508;42.622;25.416;2023-04-02T00:30:48;95706.94;;;8.16;71.37
45078;BME280;60508;42.622;25.416;2023-04-02T00:33:18;95707.16;;;8.10;72.15
45078;BME280;60508;42.622;25.416;2023-04-02T00:35:47;95706.34;;;8.09;71.61
45078;BME280;60508;42.622;25.416;2023-04-02T00:38:31;95716.00;;;8.15;71.28
45078;BME280;60508;42.622;25.416;2023-04-02T00:41:01;95715.56;;;8.23;69.87
45078;BME280;60508;42.622;25.416;2023-04-02T00:43:30;95706.00;;;8.33;69.10
45078;BME280;60508;42.622;25.416;2023-04-02T00:45:59;95710.88;;;8.41;68.33
45078;BME280;60508;42.622;25.416;2023-04-02T00:50:54;95694.91;;;8.46;67.73
45078;BME280;60508;42.622;25.416;2023-04-02T00:53:25;95694.91;;;8.46;68.04
45078;BME280;60508;42.622;25.416;2023-04-02T00:55:53;95700.56;;;8.50;68.09
45078;BME280;60508;42.622;25.416;2023-04-02T00:58:31;95700.28;;;8.51;68.59
45078;BME280;60508;42.622;25.416;2023-04-02T01:00:58;95700.34;;;8.62;67.66
45078;BME280;60508;42.622;25.416;2023-04-02T01:03:34;95703.09;;;8.72;67.45
45078;BME280;60508;42.622;25.416;2023-04-02T01:06:14;95696.69;;;8.73;68.44
45078;BME280;60508;42.622;25.416;2023-04-02T01:17:35;95696.44;;;8.80;67.18
45078;BME280;60508;42.622;25.416;2023-04-02T01:23:14;95699.34;;;8.73;66.72
45078;BME280;60508;42.622;25.416;2023-04-02T01:25:49;95703.66;;;8.74;67.08
45078;BME280;60508;42.622;25.416;2023-04-02T01:28:21;95703.44;;;8.81;67.18
45078;BME280;60508;42.622;25.416;2023-04-02T01:30:56;95699.66;;;8.82;67.08
45078;BME280;60508;42.622;25.416;2023-04-02T01:33:27;95699.97;;;8.80;67.24
45078;BME280;60508;42.622;25.416;2023-04-02T01:36:04;95712.47;;;8.69;69.66
45078;BME280;60508;42.622;25.416;2023-04-02T01:38:45;95716.19;;;8.68;71.04
45078;BME280;60508;42.622;25.416;2023-04-02T01:41:27;95730.06;;;8.60;71.52
45078;BME280;60508;42.622;25.416;2023-04-02T01:44:03;95717.22;;;8.62;72.45
45078;BME280;60508;42.622;25.416;2023-04-02T01:46:33;95717.03;;;8.69;72.97
45078;BME280;60508;42.622;25.416;2023-04-02T01:49:13;95711.97;;;8.72;72.25
45078;BME280;60508;42.622;25.416;2023-04-02T01:51:45;95710.88;;;8.73;71.03
45078;BME280;60508;42.622;25.416;2023-04-02T01:54:15;95708.00;;;8.80;69.56
45078;BME280;60508;42.622;25.416;2023-04-02T01:56:43;95707.28;;;8.95;68.18
45078;BME280;60508;42.622;25.416;2023-04-02T01:59:11;95713.25;;;8.70;67.61
45078;BME280;60508;42.622;25.416;2023-04-02T02:02:00;95719.50;;;8.81;67.63
45078;BME280;60508;42.622;25.416;2023-04-02T02:04:27;95722.47;;;8.84;68.43
45078;BME280;60508;42.622;25.416;2023-04-02T02:06:56;95720.84;;;8.83;67.83
45078;BME280;60508;42.622;25.416;2023-04-02T02:09:26;95721.41;;;8.85;67.08
45078;BME280;60508;42.622;25.416;2023-04-02T02:11:56;95713.88;;;8.82;66.74
45078;BME280;60508;42.622;25.416;2023-04-02T02:14:24;95715.22;;;8.85;67.09
45078;BME280;60508;42.622;25.416;2023-04-02T02:16:57;95717.09;;;8.84;66.58
45078;BME280;60508;42.622;25.416;2023-04-02T02:19:28;95722.19;;;8.81;66.11
45078;BME280;60508;42.622;25.416;2023-04-02T02:22:08;95722.19;;;8.81;66.31
45078;BME280;60508;42.622;25.416;2023-04-02T02:24:35;95742.44;;;8.66;66.12
45078;BME280;60508;42.622;25.416;2023-04-02T02:27:54;95735.16;;;8.62;67.17
45078;BME280;60508;42.622;25.416;2023-04-02T02:30:22;95737.84;;;8.62;67.33
45078;BME280;60508;42.622;25.416;2023-04-02T02:35:28;95740.16;;;8.85;66.26
45078;BME280;60508;42.622;25.416;2023-04-02T02:41:21;95722.16;;;8.75;66.95
45078;BME280;60508;42.622;25.416;2023-04-02T02:43:59;95750.41;;;8.99;67.10
45078;BME280;60508;42.622;25.416;2023-04-02T02:46:28;95744.53;;;9.02;69.23
45078;BME280;60508;42.622;25.416;2023-04-02T02:48:56;95754.09;;;8.87;69.89
45078;BME280;60508;42.622;25.416;2023-04-02T02:51:38;95751.13;;;8.84;71.73
45078;BME280;60508;42.622;25.416;2023-04-02T02:54:05;95747.13;;;8.86;71.35
45078;BME280;60508;42.622;25.416;2023-04-02T02:56:38;95741.22;;;8.84;72.56
45078;BME280;60508;42.622;25.416;2023-04-02T02:59:07;95738.81;;;8.88;71.71
45078;BME280;60508;42.622;25.416;2023-04-02T03:01:39;95738.81;;;8.88;71.02
45078;BME280;60508;42.622;25.416;2023-04-02T03:04:06;95737.84;;;9.04;70.54
45078;BME280;60508;42.622;25.416;2023-04-02T03:06:32;95739.00;;;9.19;68.66
45078;BME280;60508;42.622;25.416;2023-04-02T03:09:11;95743.06;;;9.26;67.30
45078;BME280;60508;42.622;25.416;2023-04-02T03:11:48;95737.91;;;9.09;68.65
45078;BME280;60508;42.622;25.416;2023-04-02T03:16:53;95749.84;;;8.91;70.38
45078;BME280;60508;42.622;25.416;2023-04-02T03:19:40;95751.97;;;8.89;70.26
45078;BME280;60508;42.622;25.416;2023-04-02T03:29:44;95766.06;;;8.74;71.68
45078;BME280;60508;42.622;25.416;2023-04-02T03:32:22;95767.09;;;8.73;72.39
45078;BME280;60508;42.622;25.416;2023-04-02T03:34:56;95757.75;;;8.76;72.66
45078;BME280;60508;42.622;25.416;2023-04-02T03:37:28;95759.41;;;8.82;71.75
45078;BME280;60508;42.622;25.416;2023-04-02T03:40:41;95755.09;;;8.76;71.95
45078;BME280;60508;42.622;25.416;2023-04-02T03:45:40;95768.25;;;8.83;70.45
45078;BME280;60508;42.622;25.416;2023-04-02T03:48:14;95769.06;;;8.83;71.77
45078;BME280;60508;42.622;25.416;2023-04-02T03:50:49;95776.31;;;8.88;71.88
45078;BME280;60508;42.622;25.416;2023-04-02T03:53:22;95780.41;;;8.95;70.86
45078;BME280;60508;42.622;25.416;2023-04-02T03:55:48;95772.13;;;9.02;70.05
45078;BME280;60508;42.622;25.416;2023-04-02T03:58:48;95775.66;;;9.08;68.59
45078;BME280;60508;42.622;25.416;2023-04-02T04:01:19;95773.94;;;9.34;67.28
45078;BME280;60508;42.622;25.416;2023-04-02T04:03:52;95769.41;;;9.40;66.19
45078;BME280;60508;42.622;25.416;2023-04-02T04:06:28;95782.78;;;9.35;66.63
45078;BME280;60508;42.622;25.416;2023-04-02T04:09:13;95765.25;;;9.17;67.40
45078;BME280;60508;42.622;25.416;2023-04-02T04:11:46;95771.72;;;9.21;67.41
45078;BME280;60508;42.622;25.416;2023-04-02T04:14:17;95771.16;;;9.19;67.43
45078;BME280;60508;42.622;25.416;2023-04-02T04:16:52;95771.66;;;9.10;67.25
45078;BME280;60508;42.622;25.416;2023-04-02T04:19:47;95784.22;;;9.05;67.50
45078;BME280;60508;42.622;25.416;2023-04-02T04:22:22;95774.56;;;9.04;67.74
45078;BME280;60508;42.622;25.416;2023-04-02T04:25:06;95784.78;;;9.12;67.28
45078;BME280;60508;42.622;25.416;2023-04-02T04:30:29;95790.50;;;9.21;67.28
45078;BME280;60508;42.622;25.416;2023-04-02T04:33:10;95801.22;;;9.26;66.93
45078;BME280;60508;42.622;25.416;2023-04-02T04:35:45;95802.91;;;9.37;67.33
45078;BME280;60508;42.622;25.416;2023-04-02T04:38:18;95806.13;;;9.39;67.64
45078;BME280;60508;42.622;25.416;2023-04-02T04:40:56;95801.38;;;9.52;70.77
45078;BME280;60508;42.622;25.416;2023-04-02T04:43:39;95800.88;;;9.60;69.46
45078;BME280;60508;42.622;25.416;2023-04-02T04:46:16;95800.91;;;9.70;68.84
45078;BME280;60508;42.622;25.416;2023-04-02T04:48:54;95793.72;;;9.76;68.42
45078;BME280;60508;42.622;25.416;2023-04-02T04:51:26;95806.91;;;9.93;65.29
45078;BME280;60508;42.622;25.416;2023-04-02T04:53:55;95809.03;;;9.85;65.18
45078;BME280;60508;42.622;25.416;2023-04-02T04:56:26;95815.94;;;9.66;65.31
45078;BME280;60508;42.622;25.416;2023-04-02T04:59:22;95809.97;;;9.54;66.31
45078;BME280;60508;42.622;25.416;2023-04-02T05:02:16;95806.75;;;9.57;65.06
45078;BME280;60508;42.622;25.416;2023-04-02T05:04:46;95804.69;;;9.74;64.39
45078;BME280;60508;42.622;25.416;2023-04-02T05:07:45;95810.34;;;9.78;64.55
45078;BME280;60508;42.622;25.416;2023-04-02T05:10:16;95818.38;;;9.78;65.07
45078;BME280;60508;42.622;25.416;2023-04-02T05:13:00;95824.03;;;9.81;65.13
45078;BME280;60508;42.622;25.416;2023-04-02T05:15:36;95826.47;;;9.88;64.52
45078;BME280;60508;42.622;25.416;2023-04-02T05:18:44;95830.78;;;9.94;64.74
45078;BME280;60508;42.622;25.416;2023-04-02T05:21:16;95823.84;;;10.03;65.44
45078;BME280;60508;42.622;25.416;2023-04-02T05:26:37;95820.16;;;10.25;63.70
45078;BME280;60508;42.622;25.416;2023-04-02T05:29:15;95828.56;;;10.39;62.84
45078;BME280;60508;42.622;25.416;2023-04-02T05:34:22;95830.91;;;10.30;62.96
45078;BME280;60508;42.622;25.416;2023-04-02T05:36:51;95836.34;;;10.46;62.46
45078;BME280;60508;42.622;25.416;2023-04-02T05:39:22;95841.22;;;10.64;60.96
45078;BME280;60508;42.622;25.416;2023-04-02T05:42:04;95835.28;;;10.67;61.11
45078;BME280;60508;42.622;25.416;2023-04-02T05:45:14;95837.75;;;10.89;59.58
45078;BME280;60508;42.622;25.416;2023-04-02T05:47:47;95845.25;;;10.98;59.69
45078;BME280;60508;42.622;25.416;2023-04-02T05:50:34;95836.94;;;10.99;58.91
45078;BME280;60508;42.622;25.416;2023-04-02T05:53:20;95834.50;;;11.03;58.34
45078;BME280;60508;42.622;25.416;2023-04-02T05:58:37;95845.81;;;11.05;57.53
45078;BME280;60508;42.622;25.416;2023-04-02T06:04:41;95846.88;;;11.14;57.62
45078;BME280;60508;42.622;25.416;2023-04-02T06:10:09;95847.66;;;11.30;57.35
45078;BME280;60508;42.622;25.416;2023-04-02T06:12:45;95843.38;;;11.29;58.09
45078;BME280;60508;42.622;25.416;2023-04-02T06:15:20;95849.28;;;11.36;57.83
45078;BME280;60508;42.622;25.416;2023-04-02T06:17:52;95846.03;;;11.39;57.64
45078;BME280;60508;42.622;25.416;2023-04-02T06:20:24;95854.91;;;11.40;57.87
45078;BME280;60508;42.622;25.416;2023-04-02T06:22:56;95847.09;;;11.59;57.35
45078;BME280;60508;42.622;25.416;2023-04-02T06:25:28;95855.69;;;11.61;57.99
45078;BME280;60508;42.622;25.416;2023-04-02T06:28:03;95846.78;;;11.76;58.33
45078;BME280;60508;42.622;25.416;2023-04-02T06:30:34;95849.97;;;11.88;58.06
45078;BME280;60508;42.622;25.416;2023-04-02T06:33:04;95863.13;;;12.05;56.82
45078;BME280;60508;42.622;25.416;2023-04-02T06:35:33;95857.19;;;12.13;57.54
45078;BME280;60508;42.622;25.416;2023-04-02T06:38:04;95862.72;;;12.37;56.92
45078;BME280;60508;42.622;25.416;2023-04-02T06:40:52;95854.53;;;12.58;55.93
45078;BME280;60508;42.622;25.416;2023-04-02T06:43:37;95858.69;;;12.79;54.41
45078;BME280;60508;42.622;25.416;2023-04-02T06:46:41;95863.78;;;12.86;54.72
45078;BME280;60508;42.622;25.416;2023-04-02T06:51:44;95862.56;;;13.03;55.31
45078;BME280;60508;42.622;25.416;2023-04-02T06:54:17;95870.97;;;12.96;54.52
45078;BME280;60508;42.622;25.416;2023-04-02T06:56:49;95863.09;;;13.05;54.90
45078;BME280;60508;42.622;25.416;2023-04-02T06:59:43;95890.44;;;13.27;54.55
45078;BME280;60508;42.622;25.416;2023-04-02T07:02:36;95879.75;;;13.12;53.56
45078;BME280;60508;42.622;25.416;2023-04-02T07:05:09;95884.31;;;13.17;53.57
45078;BME280;60508;42.622;25.416;2023-04-02T07:07:40;95890.00;;;13.49;51.55
45078;BME280;60508;42.622;25.416;2023-04-02T07:10:11;95892.13;;;13.82;51.17
45078;BME280;60508;42.622;25.416;2023-04-02T07:12:37;95892.88;;;13.87;51.22
45078;BME280;60508;42.622;25.416;2023-04-02T07:15:04;95895.09;;;13.80;49.13
45078;BME280;60508;42.622;25.416;2023-04-02T07:17:31;95896.28;;;13.69;50.46
45078;BME280;60508;42.622;25.416;2023-04-02T07:19:59;95899.69;;;13.80;51.07
45078;BME280;60508;42.622;25.416;2023-04-02T07:22:25;95894.03;;;13.81;50.84
45078;BME280;60508;42.622;25.416;2023-04-02T07:24:55;95898.16;;;13.98;50.63
45078;BME280;60508;42.622;25.416;2023-04-02T07:27:22;95902.06;;;14.11;50.31
45078;BME280;60508;42.622;25.416;2023-04-02T07:29:47;95898.50;;;14.15;49.46
45078;BME280;60508;42.622;25.416;2023-04-02T07:32:13;95897.59;;;14.01;49.54
45078;BME280;60508;42.622;25.416;2023-04-02T07:34:40;95909.25;;;13.96;50.32
45078;BME280;60508;42.622;25.416;2023-04-02T07:37:06;95908.09;;;14.02;50.20
45078;BME280;60508;42.622;25.416;2023-04-02T07:39:34;95911.16;;;14.20;50.15
45078;BME280;60508;42.622;25.416;2023-04-02T07:42:00;95910.53;;;14.28;50.51
45078;BME280;60508;42.622;25.416;2023-04-02T07:44:27;95910.81;;;14.27;50.43
45078;BME280;60508;42.622;25.416;2023-04-02T07:46:53;95912.75;;;14.45;50.41
45078;BME280;60508;42.622;25.416;2023-04-02T07:49:19;95912.06;;;14.58;48.90
45078;BME280;60508;42.622;25.416;2023-04-02T07:51:46;95910.59;;;14.66;47.40
45078;BME280;60508;42.622;25.416;2023-04-02T07:54:12;95908.22;;;14.84;48.90
45078;BME280;60508;42.622;25.416;2023-04-02T07:56:38;95917.00;;;14.94;47.95
45078;BME280;60508;42.622;25.416;2023-04-02T07:59:04;95915.09;;;14.95;45.38
45078;BME280;60508;42.622;25.416;2023-04-02T08:01:30;95915.66;;;14.92;46.12
45078;BME280;60508;42.622;25.416;2023-04-02T08:04:02;95916.13;;;14.99;46.43
45078;BME280;60508;42.622;25.416;2023-04-02T08:06:28;95911.78;;;14.98;44.85
45078;BME280;60508;42.622;25.416;2023-04-02T08:08:56;95916.41;;;15.17;46.14
45078;BME280;60508;42.622;25.416;2023-04-02T08:11:22;95911.56;;;15.32;44.94
45078;BME280;60508;42.622;25.416;2023-04-02T08:13:48;95917.09;;;15.41;44.67
45078;BME280;60508;42.622;25.416;2023-04-02T08:16:14;95916.44;;;15.49;44.11
45078;BME280;60508;42.622;25.416;2023-04-02T08:18:42;95904.13;;;15.71;43.94
45078;BME280;60508;42.622;25.416;2023-04-02T08:21:12;95906.03;;;15.90;43.91
45078;BME280;60508;42.622;25.416;2023-04-02T08:23:39;95900.00;;;15.93;42.88
45078;BME280;60508;42.622;25.416;2023-04-02T08:26:05;95902.22;;;15.91;43.00
45078;BME280;60508;42.622;25.416;2023-04-02T08:28:31;95907.63;;;15.91;43.68
45078;BME280;60508;42.622;25.416;2023-04-02T08:30:57;95908.66;;;15.76;42.79
45078;BME280;60508;42.622;25.416;2023-04-02T08:33:23;95906.66;;;16.00;43.02
45078;BME280;60508;42.622;25.416;2023-04-02T08:35:49;95909.81;;;15.88;41.45
45078;BME280;60508;42.622;25.416;2023-04-02T08:38:19;95912.13;;;15.95;44.02
45078;BME280;60508;42.622;25.416;2023-04-02T08:40:55;95913.78;;;16.10;44.04
45078;BME280;60508;42.622;25.416;2023-04-02T08:48:57;95914.78;;;16.56;40.53
45078;BME280;60508;42.622;25.416;2023-04-02T08:51:28;95915.25;;;16.58;40.65
45078;BME280;60508;42.622;25.416;2023-04-02T08:54:01;95909.53;;;16.73;40.69
45078;BME280;60508;42.622;25.416;2023-04-02T08:56:32;95908.47;;;16.97;39.87
45078;BME280;60508;42.622;25.416;2023-04-02T08:59:10;95909.25;;;17.34;39.47
45078;BME280;60508;42.622;25.416;2023-04-02T09:02:33;95908.59;;;17.51;38.31
45078;BME280;60508;42.622;25.416;2023-04-02T09:04:38;95919.31;;;17.79;36.37
45078;BME280;60508;42.622;25.416;2023-04-02T09:07:10;95910.38;;;18.50;34.57
45078;BME280;60508;42.622;25.416;2023-04-02T09:09:37;95917.09;;;19.19;34.00
45078;BME280;60508;42.622;25.416;2023-04-02T09:12:04;95921.22;;;19.60;32.34
45078;BME280;60508;42.622;25.416;2023-04-02T09:14:41;95909.72;;;19.10;33.47
45078;BME280;60508;42.622;25.416;2023-04-02T09:17:16;95919.31;;;19.25;32.83
45078;BME280;60508;42.622;25.416;2023-04-02T09:19:50;95920.63;;;20.19;32.16
45078;BME280;60508;42.622;25.416;2023-04-02T09:22:23;95925.94;;;21.89;30.32
45078;BME280;60508;42.622;25.416;2023-04-02T09:24:55;95930.75;;;24.41;26.73
45078;BME280;60508;42.622;25.416;2023-04-02T09:27:27;95938.16;;;26.87;23.84
45078;BME280;60508;42.622;25.416;2023-04-02T09:29:56;95928.59;;;27.35;23.05
45078;BME280;60508;42.622;25.416;2023-04-02T09:37:38;95945.44;;;25.32;24.93
45078;BME280;60508;42.622;25.416;2023-04-02T09:40:27;95939.53;;;24.47;24.88
45078;BME280;60508;42.622;25.416;2023-04-02T09:43:10;95940.28;;;23.30;25.76
45078;BME280;60508;42.622;25.416;2023-04-02T09:45:38;95937.00;;;23.12;26.22
45078;BME280;60508;42.622;25.416;2023-04-02T09:48:35;95937.56;;;21.44;28.74
45078;BME280;60508;42.622;25.416;2023-04-02T09:51:25;95935.19;;;20.70;29.95
45078;BME280;60508;42.622;25.416;2023-04-02T09:56:32;95925.13;;;21.13;29.85
45078;BME280;60508;42.622;25.416;2023-04-02T09:59:18;95927.59;;;20.46;30.61
45078;BME280;60508;42.622;25.416;2023-04-02T10:07:37;95927.19;;;20.65;31.54
45078;BME280;60508;42.622;25.416;2023-04-02T10:10:20;95920.31;;;20.50;30.78
45078;BME280;60508;42.622;25.416;2023-04-02T10:13:00;95936.69;;;20.12;30.85
45078;BME280;60508;42.622;25.416;2023-04-02T10:15:44;95919.97;;;20.22;30.23
45078;BME280;60508;42.622;25.416;2023-04-02T10:20:58;95915.44;;;20.35;30.88
45078;BME280;60508;42.622;25.416;2023-04-02T10:23:28;95910.38;;;20.84;31.67
45078;BME280;60508;42.622;25.416;2023-04-02T10:34:58;95896.41;;;21.49;28.55
45078;BME280;60508;42.622;25.416;2023-04-02T10:48:23;95896.16;;;20.70;30.19
45078;BME280;60508;42.622;25.416;2023-04-02T10:51:05;95898.06;;;20.99;29.73
45078;BME280;60508;42.622;25.416;2023-04-02T10:56:20;95884.59;;;21.15;30.20
45078;BME280;60508;42.622;25.416;2023-04-02T10:58:54;95889.28;;;21.36;29.08
45078;BME280;60508;42.622;25.416;2023-04-02T11:01:25;95882.19;;;21.34;29.58
45078;BME280;60508;42.622;25.416;2023-04-02T11:03:57;95883.22;;;21.09;28.87
45078;BME280;60508;42.622;25.416;2023-04-02T11:06:29;95876.28;;;21.11;29.73
45078;BME280;60508;42.622;25.416;2023-04-02T11:09:00;95884.59;;;21.36;28.35
45078;BME280;60508;42.622;25.416;2023-04-02T11:11:33;95880.41;;;21.39;27.63
45078;BME280;60508;42.622;25.416;2023-04-02T11:14:13;95875.09;;;21.21;27.53
45078;BME280;60508;42.622;25.416;2023-04-02T11:16:41;95869.84;;;21.16;27.89
45078;BME280;60508;42.622;25.416;2023-04-02T11:19:49;95870.94;;;21.15;28.19
45078;BME280;60508;42.622;25.416;2023-04-02T11:21:58;95864.78;;;21.39;29.27
45078;BME280;60508;42.622;25.416;2023-04-02T11:42:39;95864.38;;;21.83;28.26
45078;BME280;60508;42.622;25.416;2023-04-02T11:50:40;95850.84;;;21.20;26.93
45078;BME280;60508;42.622;25.416;2023-04-02T11:55:47;95851.06;;;21.81;26.88
45078;BME280;60508;42.622;25.416;2023-04-02T11:59:10;95855.44;;;22.69;25.85
45078;BME280;60508;42.622;25.416;2023-04-02T12:01:58;95863.06;;;23.28;25.22
45078;BME280;60508;42.622;25.416;2023-04-02T12:04:52;95863.34;;;23.51;25.47
45078;BME280;60508;42.622;25.416;2023-04-02T12:10:18;95861.66;;;25.26;23.14
45078;BME280;60508;42.622;25.416;2023-04-02T12:12:44;95855.00;;;26.32;22.26
45078;BME280;60508;42.622;25.416;2023-04-02T12:15:37;95845.97;;;26.85;20.60
45078;BME280;60508;42.622;25.416;2023-04-02T12:18:12;95845.13;;;28.13;20.18
45078;BME280;60508;42.622;25.416;2023-04-02T12:20:40;95843.97;;;28.62;20.09
45078;BME280;60508;42.622;25.416;2023-04-02T12:23:25;95833.38;;;28.23;20.81
45078;BME280;60508;42.622;25.416;2023-04-02T12:26:04;95837.06;;;28.41;20.37
45078;BME280;60508;42.622;25.416;2023-04-02T12:28:34;95837.00;;;28.83;20.11
45078;BME280;60508;42.622;25.416;2023-04-02T12:33:51;95837.78;;;31.22;17.67
45078;BME280;60508;42.622;25.416;2023-04-02T12:36:21;95847.31;;;30.92;17.33
45078;BME280;60508;42.622;25.416;2023-04-02T12:41:27;95834.31;;;30.35;17.76
45078;BME280;60508;42.622;25.416;2023-04-02T12:44:03;95829.84;;;32.02;16.97
45078;BME280;60508;42.622;25.416;2023-04-02T12:46:31;95834.22;;;33.97;16.06
45078;BME280;60508;42.622;25.416;2023-04-02T12:49:05;95834.16;;;36.15;14.27
45078;BME280;60508;42.622;25.416;2023-04-02T12:51:32;95843.38;;;37.27;13.11
45078;BME280;60508;42.622;25.416;2023-04-02T12:54:00;95834.63;;;35.57;13.28
45078;BME280;60508;42.622;25.416;2023-04-02T12:56:26;95830.34;;;35.33;13.58
45078;BME280;60508;42.622;25.416;2023-04-02T12:58:59;95820.84;;;34.86;14.22
45078;BME280;60508;42.622;25.416;2023-04-02T13:01:28;95828.84;;;35.28;13.63
45078;BME280;60508;42.622;25.416;2023-04-02T13:04:06;95831.44;;;35.95;13.12
45078;BME280;60508;42.622;25.416;2023-04-02T13:06:36;95832.47;;;35.65;13.29
45078;BME280;60508;42.622;25.416;2023-04-02T13:09:05;95838.72;;;35.33;13.12
45078;BME280;60508;42.622;25.416;2023-04-02T13:11:37;95841.38;;;38.09;11.68
45078;BME280;60508;42.622;25.416;2023-04-02T13:14:06;95844.63;;;40.35;9.93
45078;BME280;60508;42.622;25.416;2023-04-02T13:16:35;95839.00;;;42.21;9.33
45078;BME280;60508;42.622;25.416;2023-04-02T13:19:31;95835.09;;;43.54;8.67
45078;BME280;60508;42.622;25.416;2023-04-02T13:22:02;95827.09;;;41.46;9.62
45078;BME280;60508;42.622;25.416;2023-04-02T13:24:30;95812.38;;;39.55;9.95
45078;BME280;60508;42.622;25.416;2023-04-02T13:26:58;95825.38;;;40.25;9.68
45078;BME280;60508;42.622;25.416;2023-04-02T13:29:33;95825.34;;;42.10;9.76
45078;BME280;60508;42.622;25.416;2023-04-02T13:32:03;95833.47;;;42.60;8.85
45078;BME280;60508;42.622;25.416;2023-04-02T13:34:30;95819.41;;;42.08;8.98
45078;BME280;60508;42.622;25.416;2023-04-02T13:36:56;95817.75;;;40.34;9.67
45078;BME280;60508;42.622;25.416;2023-04-02T13:39:23;95821.97;;;40.39;10.15
45078;BME280;60508;42.622;25.416;2023-04-02T13:41:57;95824.16;;;41.31;9.05
45078;BME280;60508;42.622;25.416;2023-04-02T13:44:26;95829.22;;;40.09;10.04
45078;BME280;60508;42.622;25.416;2023-04-02T13:46:53;95830.81;;;38.13;11.35
45078;BME280;60508;42.622;25.416;2023-04-02T13:49:20;95823.56;;;37.18;11.55
45078;BME280;60508;42.622;25.416;2023-04-02T13:51:51;95814.84;;;35.68;12.40
45078;BME280;60508;42.622;25.416;2023-04-02T13:56:56;95820.81;;;38.98;11.37
45078;BME280;60508;42.622;25.416;2023-04-02T13:59:23;95817.81;;;37.38;11.23
45078;BME280;60508;42.622;25.416;2023-04-02T14:01:50;95811.91;;;38.17;11.07
45078;BME280;60508;42.622;25.416;2023-04-02T14:04:21;95804.53;;;39.28;10.67
45078;BME280;60508;42.622;25.416;2023-04-02T14:07:18;95811.88;;;40.10;10.04
45078;BME280;60508;42.622;25.416;2023-04-02T14:10:00;95804.28;;;39.13;10.32
45078;BME280;60508;42.622;25.416;2023-04-02T14:16:00;95794.59;;;37.93;11.36
45078;BME280;60508;42.622;25.416;2023-04-02T14:29:29;95795.22;;;34.91;12.81
45078;BME280;60508;42.622;25.416;2023-04-02T14:32:13;95796.19;;;36.97;11.60
45078;BME280;60508;42.622;25.416;2023-04-02T14:37:27;95803.97;;;37.18;10.43
45078;BME280;60508;42.622;25.416;2023-04-02T14:40:15;95796.09;;;37.00;11.05
45078;BME280;60508;42.622;25.416;2023-04-02T14:42:56;95798.09;;;37.71;10.85
45078;BME280;60508;42.622;25.416;2023-04-02T14:50:47;95802.69;;;37.78;10.56
45078;BME280;60508;42.622;25.416;2023-04-02T14:53:19;95800.47;;;38.59;10.28
45078;BME280;60508;42.622;25.416;2023-04-02T14:55:48;95800.69;;;39.13;9.84
45078;BME280;60508;42.622;25.416;2023-04-02T14:58:32;95808.34;;;39.88;9.68
45078;BME280;60508;42.622;25.416;2023-04-02T15:01:02;95812.31;;;40.40;9.68
45078;BME280;60508;42.622;25.416;2023-04-02T15:03:33;95811.53;;;40.08;9.51
45078;BME280;60508;42.622;25.416;2023-04-02T15:06:05;95807.28;;;39.41;10.15
45078;BME280;60508;42.622;25.416;2023-04-02T15:08:48;95803.34;;;40.23;9.36
45078;BME280;60508;42.622;25.416;2023-04-02T15:11:38;95810.47;;;40.06;9.23
45078;BME280;60508;42.622;25.416;2023-04-02T15:16:39;95802.13;;;38.09;10.68
45078;BME280;60508;42.622;25.416;2023-04-02T15:19:11;95797.91;;;36.28;12.10
45078;BME280;60508;42.622;25.416;2023-04-02T15:30:24;95798.69;;;34.05;13.25
45078;BME280;60508;42.622;25.416;2023-04-02T15:32:57;95804.72;;;33.99;13.15
45078;BME280;60508;42.622;25.416;2023-04-02T15:36:19;95806.78;;;33.95;13.07
45078;BME280;60508;42.622;25.416;2023-04-02T15:39:02;95808.19;;;33.18;13.56
45078;BME280;60508;42.622;25.416;2023-04-02T15:41:37;95801.28;;;32.01;14.29
45078;BME280;60508;42.622;25.416;2023-04-02T15:44:13;95811.97;;;32.03;14.69
45078;BME280;60508;42.622;25.416;2023-04-02T15:47:16;95818.47;;;30.65;15.44
45078;BME280;60508;42.622;25.416;2023-04-02T15:55:38;95812.91;;;27.15;19.60
45078;BME280;60508;42.622;25.416;2023-04-02T16:04:24;95814.47;;;24.17;22.66
45078;BME280;60508;42.622;25.416;2023-04-02T16:07:23;95822.13;;;23.20;23.79
45078;BME280;60508;42.622;25.416;2023-04-02T16:10:13;95827.97;;;22.16;25.71
45078;BME280;60508;42.622;25.416;2023-04-02T16:12:47;95829.34;;;21.51;26.39
45078;BME280;60508;42.622;25.416;2023-04-02T16:15:27;95826.34;;;20.90;27.33
45078;BME280;60508;42.622;25.416;2023-04-02T16:18:01;95836.81;;;20.58;28.36
45078;BME280;60508;42.622;25.416;2023-04-02T16:20:31;95837.22;;;20.18;28.54
45078;BME280;60508;42.622;25.416;2023-04-02T16:23:02;95852.66;;;20.05;29.21
45078;BME280;60508;42.622;25.416;2023-04-02T16:25:36;95853.75;;;19.65;29.85
45078;BME280;60508;42.622;25.416;2023-04-02T16:28:25;95854.25;;;19.32;30.45
45078;BME280;60508;42.622;25.416;2023-04-02T16:31:00;95854.91;;;19.38;30.59
45078;BME280;60508;42.622;25.416;2023-04-02T16:33:52;95859.72;;;19.32;30.78
45078;BME280;60508;42.622;25.416;2023-04-02T16:52:47;95858.28;;;19.00;31.39
45078;BME280;60508;42.622;25.416;2023-04-02T16:55:24;95867.19;;;18.74;31.25
45078;BME280;60508;42.622;25.416;2023-04-02T17:00:56;95853.28;;;18.67;31.70
45078;BME280;60508;42.622;25.416;2023-04-02T17:08:42;95873.19;;;18.28;32.54
45078;BME280;60508;42.622;25.416;2023-04-02T17:11:13;95880.84;;;18.25;32.86